createdAt,value
2022-12-03T00:04:30.368Z,4.8
2022-12-03T00:10:12.164Z,4.8
2022-12-03T00:15:56.427Z,4.9
2022-12-03T00:21:19.100Z,4.8
2022-12-03T00:26:56.453Z,4.8
2022-12-03T00:32:35.067Z,4.8
2022-12-03T00:38:12.292Z,4.8
2022-12-03T00:43:49.796Z,4.8
2022-12-03T00:49:31.515Z,4.8
2022-12-03T00:55:09.875Z,4.8
2022-12-03T01:00:47.458Z,4.8
2022-12-03T01:06:26.753Z,4.8
2022-12-03T01:12:04.673Z,4.8
2022-12-03T01:17:43.203Z,4.8
2022-12-03T01:23:23.836Z,4.8
2022-12-03T01:28:30.402Z,4.8
2022-12-03T01:34:08.132Z,4.8
2022-12-03T01:39:30.125Z,4.8
2022-12-03T01:45:10.845Z,4.8
2022-12-03T01:50:48.449Z,4.8
2022-12-03T01:56:10.685Z,4.8
2022-12-03T02:01:16.951Z,4.8
2022-12-03T02:06:55.087Z,4.8
2022-12-03T02:12:33.476Z,4.8
2022-12-03T02:18:10.804Z,4.9
2022-12-03T02:23:48.204Z,4.9
2022-12-03T02:29:26.223Z,4.9
2022-12-03T02:34:16.990Z,4.9
2022-12-03T02:40:00.894Z,4.9
2022-12-03T02:45:23.574Z,4.9
2022-12-03T02:51:00.501Z,4.9
2022-12-03T02:56:38.223Z,4.9
2022-12-03T03:01:44.838Z,4.9
2022-12-03T03:07:07.805Z,4.9
2022-12-03T03:12:45.663Z,4.9
2022-12-03T03:18:22.749Z,4.9
2022-12-03T03:23:44.876Z,4.9
2022-12-03T03:29:07.748Z,4.9
2022-12-03T03:34:30.655Z,4.9
2022-12-03T03:39:52.601Z,4.9
2022-12-03T03:45:30.568Z,4.9
2022-12-03T03:50:53.721Z,4.9
2022-12-03T03:56:31.101Z,4.9
2022-12-03T04:02:08.395Z,4.9
2022-12-03T04:07:30.397Z,4.9
2022-12-03T04:13:08.292Z,4.9
2022-12-03T04:18:46.811Z,4.9
2022-12-03T04:24:11.224Z,4.9
2022-12-03T04:29:48.870Z,4.9
2022-12-03T04:35:27.064Z,4.9
2022-12-03T04:41:04.732Z,4.9
2022-12-03T04:46:42.892Z,4.9
2022-12-03T04:52:27.604Z,4.9
2022-12-03T04:58:08.145Z,4.9
2022-12-03T05:03:33.009Z,5
2022-12-03T05:14:17.674Z,5.1
2022-12-03T05:19:40.805Z,5
2022-12-03T05:25:25.826Z,5
2022-12-03T05:31:06.212Z,5.1
2022-12-03T05:36:34.407Z,5.1
2022-12-03T05:42:11.638Z,5.1
2022-12-03T05:47:50.396Z,5.1
2022-12-03T05:52:56.781Z,5.1
2022-12-03T05:58:34.991Z,5.1
2022-12-03T06:04:13.436Z,5.1
2022-12-03T06:09:51.130Z,5.2
2022-12-03T06:15:29.041Z,5.2
2022-12-03T06:21:07.425Z,5.3
2022-12-03T06:26:51.081Z,5.3
2022-12-03T06:32:14.144Z,5.3
2022-12-03T06:37:36.607Z,5.3
2022-12-03T06:42:59.036Z,5.4
2022-12-03T06:48:24.150Z,5.4
2022-12-03T06:53:45.473Z,5.4
2022-12-03T06:59:19.695Z,5.5
2022-12-03T07:05:10.086Z,5.6
2022-12-03T07:10:48.541Z,5.6
2022-12-03T07:15:54.924Z,5.6
2022-12-03T07:21:18.453Z,5.7
2022-12-03T07:26:56.990Z,5.8
2022-12-03T07:32:34.754Z,5.8
2022-12-03T07:38:18.274Z,5.9
2022-12-03T07:43:56.731Z,6
2022-12-03T07:49:36.148Z,6.2
2022-12-03T07:55:14.813Z,6.3
2022-12-03T08:00:59.750Z,6.6
2022-12-03T08:06:23.286Z,6.8
2022-12-03T08:12:07.985Z,7.1
2022-12-03T08:17:47.174Z,7.4
2022-12-03T08:23:30.026Z,7.7
2022-12-03T08:28:52.201Z,7.9
2022-12-03T08:34:30.773Z,8.2
2022-12-03T08:40:08.126Z,8.4
2022-12-03T08:45:50.081Z,8.8
2022-12-03T08:51:27.873Z,9.2
2022-12-03T08:57:10.933Z,9.6
2022-12-03T09:02:54.879Z,10
2022-12-03T09:08:18.054Z,10.6
2022-12-03T09:13:40.840Z,11.1
2022-12-03T09:19:23.660Z,11.6
2022-12-03T09:25:07.070Z,11.9
2022-12-03T09:30:28.696Z,12.2
2022-12-03T09:36:07.918Z,12.6
2022-12-03T09:41:45.585Z,12.6
2022-12-03T09:47:45.003Z,12.7
2022-12-03T09:53:29.435Z,12.9
2022-12-03T09:59:09.153Z,12.9
2022-12-03T10:04:47.153Z,13.1
2022-12-03T10:10:33.575Z,13.2
2022-12-03T10:16:17.663Z,13.1
2022-12-03T10:21:57.037Z,13
2022-12-03T10:27:38.376Z,12.9
2022-12-03T10:33:19.217Z,12.9
2022-12-03T10:38:57.164Z,12.8
2022-12-03T10:44:39.415Z,12.6
2022-12-03T10:50:20.480Z,12.6
2022-12-03T10:56:02.562Z,12.8
2022-12-03T11:01:45.244Z,12.8
2022-12-03T11:07:30.280Z,12.9
2022-12-03T11:12:58.389Z,12.9
2022-12-03T11:18:24.543Z,13.1
2022-12-03T11:24:05.550Z,12.9
2022-12-03T11:29:45.459Z,12.9
2022-12-03T11:35:24.532Z,12.8
2022-12-03T11:41:35.105Z,12.5
2022-12-03T11:47:16.623Z,12.5
2022-12-03T11:52:59.142Z,12.6
2022-12-03T11:58:39.655Z,12.5
2022-12-03T12:04:18.439Z,12.5
2022-12-03T12:10:03.392Z,12.4
2022-12-03T12:15:47.076Z,12.3
2022-12-03T12:21:36.140Z,12.2
2022-12-03T12:27:21.116Z,12.3
2022-12-03T12:32:49.331Z,12.3
2022-12-03T12:38:33.726Z,12.4
2022-12-03T12:44:19.213Z,12.3
2022-12-03T12:50:29.769Z,12.2
2022-12-03T12:56:09.536Z,12.2
2022-12-03T13:01:48.603Z,12.1
2022-12-03T13:07:31.372Z,12.1
2022-12-03T13:13:14.866Z,12
2022-12-03T13:18:53.880Z,11.8
2022-12-03T13:24:39.619Z,11.6
